createdAt,value
2018-03-22T00:00:05.005Z,28.4
2018-03-22T00:00:55.250Z,28.4
2018-03-22T00:01:45.017Z,28.3
2018-03-22T00:02:36.257Z,28.3
2018-03-22T00:03:25.629Z,28.3
2018-03-22T00:04:14.440Z,28.2
2018-03-22T00:05:05.569Z,28.1
2018-03-22T00:05:54.940Z,28
2018-03-22T00:06:46.165Z,27.9
2018-03-22T00:08:25.767Z,27.7
2018-03-22T00:09:16.442Z,27.6
2018-03-22T00:10:04.713Z,27.5
2018-03-22T00:10:55.523Z,27.4
2018-03-22T00:11:46.501Z,27.4
2018-03-22T00:12:35.306Z,27.3
2018-03-22T00:13:25.593Z,27.4
2018-03-22T00:14:15.173Z,27.4
2018-03-22T00:15:04.961Z,27.4
2018-03-22T00:15:55.588Z,27.5
2018-03-22T00:16:46.342Z,27.6
2018-03-22T00:17:35.742Z,27.6
2018-03-22T00:18:26.571Z,27.7
2018-03-22T00:19:16.014Z,27.8
2018-03-22T00:21:46.990Z,27.9
2018-03-22T00:22:36.551Z,27.9
2018-03-22T00:23:27.201Z,28
2018-03-22T00:24:16.308Z,28.1
2018-03-22T00:25:06.947Z,28.1
2018-03-22T00:25:56.280Z,28.2
2018-03-22T00:26:46.970Z,28.2
2018-03-22T00:27:37.493Z,28.2
2018-03-22T00:28:27.732Z,28.2
2018-03-22T00:29:16.965Z,28.1
2018-03-22T00:30:06.817Z,28.1
2018-03-22T00:30:55.958Z,28.1
2018-03-22T00:31:47.516Z,28
2018-03-22T00:32:37.133Z,27.9
2018-03-22T00:33:27.809Z,27.9
2018-03-22T00:35:57.221Z,27.8
2018-03-22T00:36:47.937Z,27.7
2018-03-22T00:37:36.827Z,27.7
2018-03-22T00:38:27.892Z,27.7
2018-03-22T00:39:17.659Z,27.7
2018-03-22T00:41:48.006Z,27.9
2018-03-22T00:42:38.199Z,27.9
2018-03-22T00:43:28.513Z,28
2018-03-22T00:44:17.441Z,28
2018-03-22T00:45:08.343Z,28.1
2018-03-22T00:45:57.606Z,28.1
2018-03-22T00:46:48.343Z,28.2
2018-03-22T00:47:38.110Z,28.2
2018-03-22T00:48:27.894Z,28.2
2018-03-22T00:49:18.519Z,28.2
2018-03-22T00:50:08.357Z,28.2
2018-03-22T00:50:58.541Z,28.1
2018-03-22T00:51:48.359Z,28.1
2018-03-22T00:52:38.686Z,28.1
2018-03-22T00:53:28.725Z,28.1
2018-03-22T00:54:18.660Z,28.1
2018-03-22T00:55:08.190Z,28
2018-03-22T00:55:58.749Z,27.9
2018-03-22T00:56:48.955Z,27.9
2018-03-22T00:57:39.490Z,27.8
2018-03-22T00:58:28.380Z,27.6
2018-03-22T00:59:18.430Z,27.6
2018-03-22T01:00:09.708Z,27.4
2018-03-22T01:00:59.756Z,27.4
2018-03-22T01:01:49.266Z,27.3
2018-03-22T01:02:39.662Z,27.3
2018-03-22T01:03:28.803Z,27.4
2018-03-22T01:04:19.981Z,27.4
2018-03-22T01:05:09.555Z,27.4
2018-03-22T01:05:59.570Z,27.4
2018-03-22T01:06:50.125Z,27.5
2018-03-22T01:07:39.480Z,27.6
2018-03-22T01:08:29.175Z,27.6
2018-03-22T01:09:20.213Z,27.7
2018-03-22T01:10:09.918Z,27.8
2018-03-22T01:12:40.366Z,27.9
2018-03-22T01:13:30.310Z,28
2018-03-22T01:14:20.372Z,28
2018-03-22T01:15:10.714Z,28.1
2018-03-22T01:16:00.874Z,28.1
2018-03-22T01:16:50.625Z,28.2
2018-03-22T01:17:41.230Z,28.3
2018-03-22T01:18:29.991Z,28.3
2018-03-22T01:19:21.242Z,28.3
2018-03-22T01:20:09.977Z,28.3
2018-03-22T01:21:00.317Z,28.3
2018-03-22T01:21:50.677Z,28.3
2018-03-22T01:22:40.901Z,28.3
2018-03-22T01:23:29.836Z,28.2
2018-03-22T01:24:20.889Z,28.2
2018-03-22T01:25:10.521Z,28.1
2018-03-22T01:26:00.994Z,28.1
2018-03-22T01:26:51.519Z,28
2018-03-22T01:27:41.100Z,27.9
2018-03-22T01:29:19.642Z,27.7
2018-03-22T01:30:10.775Z,27.6
2018-03-22T01:31:01.034Z,27.5
2018-03-22T01:31:51.338Z,27.4
2018-03-22T01:32:41.769Z,27.3
2018-03-22T01:33:31.464Z,27.3
2018-03-22T01:34:21.960Z,27.3
2018-03-22T01:35:11.934Z,27.3
2018-03-22T01:36:01.680Z,27.4
2018-03-22T01:36:52.546Z,27.4
2018-03-22T01:37:42.606Z,27.4
2018-03-22T01:38:31.251Z,27.5
2018-03-22T01:39:21.911Z,27.6
2018-03-22T01:40:12.204Z,27.6
2018-03-22T01:41:02.014Z,27.7
2018-03-22T01:41:52.021Z,27.8
2018-03-22T01:43:32.109Z,27.9
2018-03-22T01:44:22.194Z,27.9
2018-03-22T01:45:11.606Z,28
2018-03-22T01:46:02.683Z,28.1
2018-03-22T01:46:52.613Z,28.1
2018-03-22T01:47:42.713Z,28.1
2018-03-22T01:48:32.848Z,28.2
2018-03-22T01:49:22.686Z,28.2
2018-03-22T01:50:13.730Z,28.3
2018-03-22T01:51:02.548Z,28.3
2018-03-22T01:51:53.062Z,28.3
2018-03-22T01:52:42.443Z,28.3
2018-03-22T01:53:32.621Z,28.3
2018-03-22T01:54:22.980Z,28.3
2018-03-22T01:55:12.833Z,28.3
2018-03-22T01:56:02.411Z,28.3
2018-03-22T01:56:53.341Z,28.3
2018-03-22T01:57:43.397Z,28.2
2018-03-22T01:58:34.326Z,28.1
2018-03-22T01:59:22.928Z,28.1
2018-03-22T02:00:13.425Z,28
2018-03-22T02:01:03.712Z,27.9
2018-03-22T02:01:53.723Z,27.8
2018-03-22T02:02:44.330Z,27.6
2018-03-22T02:03:34.067Z,27.6
2018-03-22T02:04:22.762Z,27.4
2018-03-22T02:05:14.014Z,27.4
2018-03-22T02:06:03.200Z,27.3
2018-03-22T02:06:54.687Z,27.3
2018-03-22T02:07:43.818Z,27.3
2018-03-22T02:08:33.337Z,27.3
2018-03-22T02:09:24.491Z,27.4
2018-03-22T02:10:13.819Z,27.4
2018-03-22T02:11:04.028Z,27.5
2018-03-22T02:11:55.234Z,27.5
2018-03-22T02:12:43.724Z,27.6
2018-03-22T02:13:33.826Z,27.6
2018-03-22T02:14:24.555Z,27.7
2018-03-22T02:15:14.607Z,27.7
2018-03-22T02:16:04.490Z,27.8
2018-03-22T02:17:44.904Z,27.9
2018-03-22T02:18:34.744Z,27.9
2018-03-22T02:19:25.234Z,28
2018-03-22T02:20:15.077Z,28.1
2018-03-22T02:21:04.323Z,28.1
2018-03-22T02:21:54.685Z,28.1
2018-03-22T02:22:45.217Z,28.1
2018-03-22T02:23:35.076Z,28.3
2018-03-22T02:24:25.854Z,28.3
2018-03-22T02:25:14.137Z,28.3
2018-03-22T02:26:05.114Z,28.3
2018-03-22T02:26:55.257Z,28.3
2018-03-22T02:27:46.079Z,28.3
2018-03-22T02:28:36.153Z,28.3
2018-03-22T02:29:25.358Z,28.3
2018-03-22T02:30:16.277Z,28.3
2018-03-22T02:31:05.841Z,28.3
2018-03-22T02:31:55.612Z,28.2
2018-03-22T02:32:45.683Z,28.2
2018-03-22T02:33:36.242Z,28.1
2018-03-22T02:34:25.987Z,28.1
2018-03-22T02:35:15.752Z,27.9
2018-03-22T02:36:55.563Z,27.7
2018-03-22T02:37:46.390Z,27.6
2018-03-22T02:38:36.151Z,27.5
2018-03-22T02:39:26.135Z,27.4
2018-03-22T02:40:16.887Z,27.3
2018-03-22T02:41:06.299Z,27.3
2018-03-22T02:41:56.401Z,27.3
2018-03-22T02:42:45.872Z,27.3
2018-03-22T02:43:35.648Z,27.4
2018-03-22T02:44:26.760Z,27.4
2018-03-22T02:45:16.070Z,27.4
2018-03-22T02:46:07.037Z,27.5
2018-03-22T02:46:56.342Z,27.5
2018-03-22T02:47:46.250Z,27.6
2018-03-22T02:48:36.974Z,27.6
2018-03-22T02:49:26.745Z,27.7
2018-03-22T02:50:17.668Z,27.8
2018-03-22T02:52:47.159Z,27.9
2018-03-22T02:53:37.100Z,27.9
2018-03-22T02:54:26.787Z,28
2018-03-22T02:55:17.541Z,28.1
2018-03-22T02:56:06.927Z,28.1
2018-03-22T02:56:57.369Z,28.1
2018-03-22T02:57:46.727Z,28.2
2018-03-22T02:58:37.672Z,28.2
2018-03-22T02:59:26.882Z,28.3
2018-03-22T03:00:18.009Z,28.3
2018-03-22T03:01:07.147Z,28.3
2018-03-22T03:01:58.290Z,28.4
2018-03-22T03:02:47.979Z,28.4
2018-03-22T03:03:37.231Z,28.4
2018-03-22T03:04:27.878Z,28.4
2018-03-22T03:05:17.124Z,28.4
2018-03-22T03:06:07.683Z,28.5
2018-03-22T03:06:57.964Z,28.6
2018-03-22T03:07:48.591Z,28.6
2018-03-22T03:08:38.441Z,28.6
2018-03-22T03:09:27.629Z,28.6
2018-03-22T03:10:17.271Z,28.6
2018-03-22T03:11:07.941Z,28.7
2018-03-22T03:11:57.664Z,28.7
2018-03-22T03:12:48.111Z,28.7
2018-03-22T03:13:38.385Z,28.6
2018-03-22T03:14:29.113Z,28.6
2018-03-22T03:15:18.467Z,28.5
2018-03-22T03:16:09.263Z,28.4
2018-03-22T03:16:58.436Z,28.3
2018-03-22T03:17:48.496Z,28.3
2018-03-22T03:18:38.822Z,28.2
2018-03-22T03:19:29.438Z,28.1
2018-03-22T03:20:18.252Z,28.1
2018-03-22T03:21:08.809Z,28
2018-03-22T03:22:00.110Z,27.9
2018-03-22T03:23:39.697Z,27.8
2018-03-22T03:24:28.460Z,27.8
2018-03-22T03:25:18.503Z,27.8
2018-03-22T03:27:49.266Z,27.9
2018-03-22T03:28:39.451Z,27.9
2018-03-22T03:29:29.812Z,28
2018-03-22T03:30:19.941Z,28
2018-03-22T03:31:10.130Z,28.1
2018-03-22T03:32:00.030Z,28.1
2018-03-22T03:32:49.848Z,28.2
2018-03-22T03:33:39.596Z,28.3
2018-03-22T03:34:30.980Z,28.3
2018-03-22T03:35:20.020Z,28.3
2018-03-22T03:36:10.689Z,28.3
2018-03-22T03:37:00.152Z,28.3
2018-03-22T03:37:48.912Z,28.3
2018-03-22T03:38:39.172Z,28.3
2018-03-22T03:39:29.757Z,28.3
2018-03-22T03:40:19.971Z,28.3
2018-03-22T03:41:09.825Z,28.3
2018-03-22T03:42:00.100Z,28.2
2018-03-22T03:42:49.937Z,28.1
2018-03-22T03:43:41.481Z,28
2018-03-22T03:44:30.652Z,27.9
2018-03-22T03:46:10.439Z,27.7
2018-03-22T03:47:01.912Z,27.6
2018-03-22T03:47:50.524Z,27.5
2018-03-22T03:48:41.669Z,27.4
2018-03-22T03:49:30.526Z,27.4
2018-03-22T03:50:21.026Z,27.4
2018-03-22T03:51:11.329Z,27.4
2018-03-22T03:52:00.389Z,27.4
2018-03-22T03:52:51.958Z,27.5
2018-03-22T03:53:40.886Z,27.5
2018-03-22T03:54:31.541Z,27.6
2018-03-22T03:55:21.104Z,27.6
2018-03-22T03:56:10.993Z,27.7
2018-03-22T03:57:01.795Z,27.8
2018-03-22T03:58:41.403Z,27.9
2018-03-22T03:59:32.311Z,27.9
2018-03-22T04:00:21.633Z,28
2018-03-22T04:01:12.385Z,28
2018-03-22T04:02:01.583Z,28.1
2018-03-22T04:02:51.721Z,28.1
2018-03-22T04:03:42.348Z,28.2
2018-03-22T04:04:32.263Z,28.3
2018-03-22T04:05:22.577Z,28.3
2018-03-22T04:06:11.941Z,28.3
2018-03-22T04:07:01.055Z,28.4
2018-03-22T04:07:52.272Z,28.4
2018-03-22T04:08:42.123Z,28.4
2018-03-22T04:09:32.390Z,28.4
2018-03-22T04:10:22.742Z,28.4
2018-03-22T04:11:12.855Z,28.3
2018-03-22T04:12:03.753Z,28.3
2018-03-22T04:12:53.425Z,28.3
2018-03-22T04:13:42.867Z,28.3
2018-03-22T04:14:32.939Z,28.3
2018-03-22T04:15:22.412Z,28.2
2018-03-22T04:16:12.767Z,28.1
2018-03-22T04:17:03.568Z,28
2018-03-22T04:18:42.327Z,27.8
2018-03-22T04:19:33.186Z,27.6
2018-03-22T04:20:23.818Z,27.5
2018-03-22T04:21:13.039Z,27.4
2018-03-22T04:22:03.045Z,27.4
2018-03-22T04:22:53.622Z,27.4
2018-03-22T04:23:43.160Z,27.4
2018-03-22T04:24:33.637Z,27.5
2018-03-22T04:25:23.017Z,27.6
2018-03-22T04:26:12.554Z,27.6
2018-03-22T04:27:04.080Z,27.6
2018-03-22T04:27:55.075Z,27.6
2018-03-22T04:28:44.041Z,27.7
2018-03-22T04:29:34.606Z,27.8
2018-03-22T04:31:14.879Z,27.9
2018-03-22T04:32:04.449Z,27.9
2018-03-22T04:32:54.201Z,28
2018-03-22T04:33:44.269Z,28.1
2018-03-22T04:34:34.665Z,28.1
2018-03-22T04:35:23.911Z,28.1
2018-03-22T04:36:13.971Z,28.2
2018-03-22T04:37:03.815Z,28.3
2018-03-22T04:37:54.651Z,28.3
2018-03-22T04:38:44.486Z,28.3
2018-03-22T04:39:34.672Z,28.3
2018-03-22T04:40:24.506Z,28.4
2018-03-22T04:41:14.303Z,28.4
2018-03-22T04:42:04.148Z,28.4
2018-03-22T04:42:55.216Z,28.4
2018-03-22T04:43:44.577Z,28.4
2018-03-22T04:44:34.946Z,28.4
2018-03-22T04:45:25.400Z,28.4
2018-03-22T04:46:14.345Z,28.4
2018-03-22T04:47:04.233Z,28.3
2018-03-22T04:47:55.289Z,28.3
2018-03-22T04:48:46.065Z,28.3
2018-03-22T04:49:34.688Z,28.2
2018-03-22T04:50:24.965Z,28.1
2018-03-22T04:51:14.632Z,28
2018-03-22T04:52:05.442Z,27.9
2018-03-22T04:52:55.142Z,27.8
2018-03-22T04:53:46.494Z,27.7
2018-03-22T04:54:36.872Z,27.6
2018-03-22T04:55:26.580Z,27.5
2018-03-22T04:56:16.670Z,27.4
2018-03-22T04:57:06.675Z,27.3
2018-03-22T04:57:56.792Z,27.3
2018-03-22T04:58:46.554Z,27.2
2018-03-22T04:59:36.921Z,27.1
2018-03-22T05:00:26.969Z,27.1
2018-03-22T05:01:17.042Z,27.1
2018-03-22T05:02:05.665Z,27.1
2018-03-22T05:02:57.135Z,27.1
2018-03-22T05:03:47.224Z,27.1
2018-03-22T05:04:36.980Z,27.2
2018-03-22T05:05:27.306Z,27.3
2018-03-22T05:06:17.681Z,27.3
2018-03-22T05:07:07.525Z,27.4
2018-03-22T05:07:58.074Z,27.4
2018-03-22T05:08:46.969Z,27.5
2018-03-22T05:09:37.865Z,27.5
2018-03-22T05:10:28.244Z,27.6
2018-03-22T05:11:18.011Z,27.7
2018-03-22T05:12:07.535Z,27.8
2018-03-22T05:12:57.539Z,27.8
2018-03-22T05:14:38.289Z,27.9
2018-03-22T05:15:27.799Z,27.9
2018-03-22T05:16:18.067Z,28
2018-03-22T05:17:08.471Z,28
2018-03-22T05:17:58.168Z,28.1
2018-03-22T05:18:49.023Z,28.1
2018-03-22T05:19:38.011Z,28.2
2018-03-22T05:20:28.102Z,28.2
2018-03-22T05:21:18.686Z,28.3
2018-03-22T05:22:08.753Z,28.3
2018-03-22T05:22:58.230Z,28.3
2018-03-22T05:23:49.174Z,28.4
2018-03-22T05:24:38.966Z,28.4
2018-03-22T05:25:28.754Z,28.4
2018-03-22T05:26:19.001Z,28.4
2018-03-22T05:27:08.824Z,28.5
2018-03-22T05:27:59.160Z,28.4
2018-03-22T05:28:49.492Z,28.4
2018-03-22T05:29:39.244Z,28.4
2018-03-22T05:30:29.046Z,28.4
2018-03-22T05:31:19.715Z,28.4
2018-03-22T05:32:09.161Z,28.3
2018-03-22T05:32:59.191Z,28.3
2018-03-22T05:33:49.610Z,28.2
2018-03-22T05:34:39.655Z,28.1
2018-03-22T05:35:29.956Z,28.1
2018-03-22T05:36:19.970Z,27.9
2018-03-22T05:37:09.811Z,27.8
2018-03-22T05:37:59.834Z,27.6
2018-03-22T05:38:49.893Z,27.5
2018-03-22T05:39:40.212Z,27.4
2018-03-22T05:40:30.018Z,27.3
2018-03-22T05:41:20.030Z,27.2
2018-03-22T05:42:09.646Z,27.1
2018-03-22T05:42:59.236Z,27.1
2018-03-22T05:43:49.322Z,26.9
2018-03-22T05:44:39.523Z,26.9
2018-03-22T05:45:28.022Z,26.8
2018-03-22T05:46:19.940Z,26.8
2018-03-22T05:47:09.353Z,26.8
2018-03-22T05:47:59.903Z,26.8
2018-03-22T05:48:50.040Z,26.9
2018-03-22T05:49:39.845Z,27
2018-03-22T05:50:30.336Z,27.1
2018-03-22T05:51:19.458Z,27.1
2018-03-22T05:52:09.663Z,27.2
2018-03-22T05:52:59.369Z,27.3
2018-03-22T05:53:49.618Z,27.3
2018-03-22T05:54:39.391Z,27.3
2018-03-22T05:55:29.922Z,27.4
2018-03-22T05:56:19.936Z,27.4
2018-03-22T05:57:10.041Z,27.5
2018-03-22T05:58:00.435Z,27.5
2018-03-22T05:58:50.263Z,27.6
2018-03-22T05:59:40.055Z,27.6
2018-03-22T06:00:31.055Z,27.6
2018-03-22T06:01:21.258Z,27.7
2018-03-22T06:02:10.452Z,27.8
2018-03-22T06:03:00.303Z,27.8
2018-03-22T06:05:30.158Z,27.9
2018-03-22T06:06:20.405Z,27.9
2018-03-22T06:07:10.052Z,27.9
2018-03-22T06:08:00.948Z,28
2018-03-22T06:08:51.948Z,28
2018-03-22T06:09:40.741Z,28
2018-03-22T06:10:30.980Z,27.9
2018-03-22T06:11:21.636Z,27.9
2018-03-22T06:12:10.615Z,27.9
2018-03-22T06:13:50.753Z,27.8
2018-03-22T06:14:41.767Z,27.7
2018-03-22T06:15:30.071Z,27.6
2018-03-22T06:16:21.997Z,27.6
2018-03-22T06:17:10.893Z,27.5
2018-03-22T06:18:01.901Z,27.4
2018-03-22T06:18:51.399Z,27.4
2018-03-22T06:19:41.132Z,27.4
2018-03-22T06:20:31.496Z,27.3
2018-03-22T06:21:21.656Z,27.3
2018-03-22T06:22:11.477Z,27.3
2018-03-22T06:23:01.434Z,27.3
2018-03-22T06:23:52.391Z,27.3
2018-03-22T06:24:41.582Z,27.3
2018-03-22T06:25:31.349Z,27.4
2018-03-22T06:26:21.721Z,27.4
2018-03-22T06:27:10.941Z,27.5
2018-03-22T06:28:02.503Z,27.6
2018-03-22T06:28:52.803Z,27.6
2018-03-22T06:29:42.050Z,27.6
2018-03-22T06:30:30.823Z,27.8
2018-03-22T06:31:22.124Z,27.8
2018-03-22T06:33:02.540Z,27.9
2018-03-22T06:33:51.128Z,27.9
2018-03-22T06:34:43.132Z,28
2018-03-22T06:35:32.753Z,28
2018-03-22T06:36:22.603Z,28
2018-03-22T06:37:13.559Z,28
2018-03-22T06:38:02.158Z,27.9
2018-03-22T06:38:52.857Z,27.9
2018-03-22T06:39:42.540Z,27.9
2018-03-22T06:40:31.908Z,27.9
2018-03-22T06:41:22.593Z,27.9
2018-03-22T06:44:43.188Z,27.8
2018-03-22T06:45:33.108Z,27.8
2018-03-22T06:46:22.625Z,27.7
2018-03-22T06:47:13.503Z,27.7
2018-03-22T06:48:03.230Z,27.6
2018-03-22T06:48:52.759Z,27.5
2018-03-22T06:49:43.747Z,27.4
2018-03-22T06:50:33.552Z,27.3
2018-03-22T06:51:23.643Z,27.3
2018-03-22T06:52:13.878Z,27.2
2018-03-22T06:53:04.704Z,27.1
2018-03-22T06:53:53.300Z,27
2018-03-22T06:54:43.619Z,27
2018-03-22T06:55:33.330Z,27
2018-03-22T06:56:23.137Z,27.1
2018-03-22T06:57:13.236Z,27.1
2018-03-22T06:58:04.873Z,27.1
2018-03-22T06:58:53.939Z,27.1
2018-03-22T06:59:43.694Z,27.2
2018-03-22T07:00:35.047Z,27.3
2018-03-22T07:01:24.322Z,27.3
2018-03-22T07:02:14.337Z,27.4
2018-03-22T07:03:05.108Z,27.4
2018-03-22T07:03:55.120Z,27.4
2018-03-22T07:04:45.159Z,27.5
2018-03-22T07:05:34.380Z,27.6
2018-03-22T07:06:24.864Z,27.6
2018-03-22T07:07:13.511Z,27.7
2018-03-22T07:08:05.156Z,27.8
2018-03-22T07:10:34.981Z,27.9
2018-03-22T07:11:24.506Z,27.9
2018-03-22T07:12:15.108Z,27.9
2018-03-22T07:13:05.048Z,28
2018-03-22T07:13:54.920Z,28.1
2018-03-22T07:14:45.232Z,28.1
2018-03-22T07:15:34.481Z,28.1
2018-03-22T07:16:25.562Z,28.1
2018-03-22T07:17:15.698Z,28.1
2018-03-22T07:18:05.906Z,28.1
2018-03-22T07:18:55.361Z,28.1
2018-03-22T07:19:46.533Z,28
2018-03-22T07:20:34.981Z,28
2018-03-22T07:21:26.257Z,28
2018-03-22T07:22:16.273Z,27.9
2018-03-22T07:23:05.595Z,27.9
2018-03-22T07:23:55.865Z,27.9
2018-03-22T07:26:25.908Z,27.8
2018-03-22T07:27:16.468Z,27.8
2018-03-22T07:28:06.143Z,27.7
2018-03-22T07:28:56.122Z,27.6
2018-03-22T07:29:46.661Z,27.5
2018-03-22T07:30:36.311Z,27.4
2018-03-22T07:31:27.225Z,27.3
2018-03-22T07:32:17.337Z,27.3
2018-03-22T07:33:06.704Z,27.1
2018-03-22T07:33:57.660Z,27.1
2018-03-22T07:34:46.805Z,27.1
2018-03-22T07:35:38.292Z,27
2018-03-22T07:36:28.033Z,27.1
2018-03-22T07:37:17.818Z,27.1
2018-03-22T07:38:08.035Z,27.1
2018-03-22T07:38:57.965Z,27.1
2018-03-22T07:39:48.030Z,27.1
2018-03-22T07:40:37.139Z,27.2
2018-03-22T07:41:26.681Z,27.3
2018-03-22T07:42:17.452Z,27.3
2018-03-22T07:43:07.015Z,27.3
2018-03-22T07:43:57.184Z,27.4
2018-03-22T07:44:47.143Z,27.4
2018-03-22T07:45:37.197Z,27.5
2018-03-22T07:46:27.840Z,27.5
2018-03-22T07:47:17.923Z,27.6
2018-03-22T07:48:07.778Z,27.6
2018-03-22T07:48:58.298Z,27.7
2018-03-22T07:49:47.952Z,27.8
2018-03-22T07:52:17.225Z,27.9
2018-03-22T07:53:08.991Z,27.9
2018-03-22T07:53:58.732Z,27.9
2018-03-22T07:54:48.855Z,28
2018-03-22T07:55:38.133Z,28
2018-03-22T07:56:28.122Z,28.1
2018-03-22T07:57:19.375Z,28.1
2018-03-22T07:58:08.313Z,28.1
2018-03-22T07:58:58.701Z,28.1
2018-03-22T07:59:49.172Z,28.2
2018-03-22T08:00:38.644Z,28.3
2018-03-22T08:01:26.431Z,28.3
2018-03-22T08:02:17.543Z,28.3
2018-03-22T08:03:08.491Z,28.3
2018-03-22T08:03:58.355Z,28.3
2018-03-22T08:04:48.719Z,28.3
2018-03-22T08:05:38.657Z,28.4
2018-03-22T08:06:28.830Z,28.4
2018-03-22T08:07:18.584Z,28.4
2018-03-22T08:08:09.126Z,28.4
2018-03-22T08:08:58.577Z,28.4
2018-03-22T08:09:49.653Z,28.4
2018-03-22T08:10:38.776Z,28.5
2018-03-22T08:11:28.474Z,28.5
2018-03-22T08:12:19.306Z,28.5
2018-03-22T08:13:08.874Z,28.6
2018-03-22T08:13:58.862Z,28.6
2018-03-22T08:14:49.081Z,28.6
2018-03-22T08:15:38.564Z,28.6
2018-03-22T08:16:29.741Z,28.6
2018-03-22T08:17:19.279Z,28.6
2018-03-22T08:18:09.918Z,28.6
2018-03-22T08:18:59.377Z,28.6
2018-03-22T08:19:48.626Z,28.6
2018-03-22T08:20:40.287Z,28.6
2018-03-22T08:21:29.825Z,28.7
2018-03-22T08:22:19.708Z,28.6
2018-03-22T08:23:09.390Z,28.6
2018-03-22T08:23:59.407Z,28.7
2018-03-22T08:24:50.046Z,28.7
2018-03-22T08:25:39.003Z,28.7
2018-03-22T08:26:30.850Z,28.7
2018-03-22T08:27:20.053Z,28.7
2018-03-22T08:28:10.688Z,28.7
2018-03-22T08:29:01.035Z,28.7
2018-03-22T08:29:50.743Z,28.7
2018-03-22T08:30:39.485Z,28.7
2018-03-22T08:31:30.138Z,28.7
2018-03-22T08:32:20.674Z,28.7
2018-03-22T08:33:10.567Z,28.8
2018-03-22T08:34:00.755Z,28.8
2018-03-22T08:34:51.269Z,28.8
2018-03-22T08:35:40.455Z,28.8
2018-03-22T08:36:31.216Z,28.8
2018-03-22T08:37:21.123Z,28.8
2018-03-22T08:38:10.782Z,28.8
2018-03-22T08:39:00.837Z,28.7
2018-03-22T08:39:51.232Z,28.6
2018-03-22T08:40:41.462Z,28.6
2018-03-22T08:41:31.587Z,28.5
2018-03-22T08:42:21.928Z,28.4
2018-03-22T08:43:12.969Z,28.3
2018-03-22T08:44:01.262Z,28.2
2018-03-22T08:44:51.168Z,28.1
2018-03-22T08:45:41.402Z,28.1
2018-03-22T08:46:32.449Z,28
2018-03-22T08:47:21.639Z,27.9
2018-03-22T08:48:11.976Z,27.9
2018-03-22T08:49:01.840Z,27.8
2018-03-22T08:49:51.887Z,27.8
2018-03-22T08:50:42.184Z,27.8
2018-03-22T08:51:32.622Z,27.8
2018-03-22T08:52:21.994Z,27.8
2018-03-22T08:54:53.992Z,27.9
2018-03-22T08:55:43.004Z,27.9
2018-03-22T08:56:33.570Z,28
2018-03-22T08:57:23.166Z,28.1
2018-03-22T08:58:12.994Z,28.1
2018-03-22T08:59:02.755Z,28.2
2018-03-22T08:59:52.056Z,28.3
2018-03-22T09:00:43.054Z,28.2
2018-03-22T09:01:32.419Z,28.3
2018-03-22T09:02:22.984Z,28.2
2018-03-22T09:03:12.743Z,28.2
2018-03-22T09:04:02.556Z,28.2
2018-03-22T09:04:53.445Z,28.2
2018-03-22T09:05:43.269Z,28.2
2018-03-22T09:06:33.314Z,28.1
2018-03-22T09:07:22.808Z,28.1
2018-03-22T09:08:13.110Z,28.1
2018-03-22T09:09:04.018Z,28.1
2018-03-22T09:09:53.613Z,28.1
2018-03-22T09:10:43.376Z,28.1
2018-03-22T09:11:33.901Z,28
2018-03-22T09:12:22.083Z,27.9
2018-03-22T09:13:13.378Z,27.9
2018-03-22T09:14:53.203Z,27.8
2018-03-22T09:15:43.636Z,27.7
2018-03-22T09:16:33.020Z,27.6
2018-03-22T09:17:24.240Z,27.5
2018-03-22T09:18:13.634Z,27.4
2018-03-22T09:19:03.704Z,27.3
2018-03-22T09:19:54.360Z,27.3
2018-03-22T09:20:44.190Z,27.3
2018-03-22T09:21:33.616Z,27.3
2018-03-22T09:22:23.861Z,27.3
2018-03-22T09:23:13.812Z,27.3
2018-03-22T09:24:04.043Z,27.3
2018-03-22T09:24:54.335Z,27.4
2018-03-22T09:25:43.975Z,27.4
2018-03-22T09:26:33.938Z,27.4
2018-03-22T09:27:24.502Z,27.5
2018-03-22T09:28:14.863Z,27.6
2018-03-22T09:29:05.292Z,27.6
2018-03-22T09:29:54.173Z,27.7
2018-03-22T09:30:45.512Z,27.7
2018-03-22T09:33:15.207Z,27.9
2018-03-22T09:34:05.485Z,27.9
2018-03-22T09:34:56.064Z,28
2018-03-22T09:35:45.030Z,28.1
2018-03-22T09:36:34.627Z,28.1
2018-03-22T09:37:24.385Z,28.1
2018-03-22T09:38:16.495Z,28.2
2018-03-22T09:39:05.861Z,28.2
2018-03-22T09:39:55.739Z,28.2
2018-03-22T09:40:44.800Z,28.1
2018-03-22T09:41:35.754Z,28.1
2018-03-22T09:42:25.003Z,28.1
2018-03-22T09:43:15.062Z,28.1
2018-03-22T09:44:05.772Z,28.1
2018-03-22T09:44:55.699Z,28.1
2018-03-22T09:45:45.369Z,28
2018-03-22T09:46:34.795Z,28
2018-03-22T09:47:25.752Z,28
2018-03-22T09:48:15.699Z,27.9
2018-03-22T09:49:06.629Z,27.9
2018-03-22T09:49:56.829Z,27.9
2018-03-22T09:51:35.615Z,27.8
2018-03-22T09:52:26.080Z,27.6
2018-03-22T09:53:16.473Z,27.6
2018-03-22T09:54:05.528Z,27.5
2018-03-22T09:54:55.901Z,27.4
2018-03-22T09:55:46.761Z,27.3
2018-03-22T09:56:36.493Z,27.2
2018-03-22T09:57:27.804Z,27.2
2018-03-22T09:58:16.713Z,27.2
2018-03-22T09:59:08.251Z,27.3
2018-03-22T09:59:57.683Z,27.3
2018-03-22T10:00:48.025Z,27.3
2018-03-22T10:01:38.369Z,27.3
2018-03-22T10:02:28.400Z,27.3
2018-03-22T10:03:18.164Z,27.3
2018-03-22T10:04:07.694Z,27.4
2018-03-22T10:04:57.800Z,27.4
2018-03-22T10:05:47.344Z,27.5
2018-03-22T10:06:38.398Z,27.6
2018-03-22T10:07:28.794Z,27.6
2018-03-22T10:08:18.500Z,27.7
2018-03-22T10:09:07.815Z,27.8
2018-03-22T10:10:47.916Z,27.9
2018-03-22T10:11:38.485Z,27.9
2018-03-22T10:12:28.825Z,27.9
2018-03-22T10:13:18.380Z,28
2018-03-22T10:14:08.130Z,28.1
2018-03-22T10:14:57.958Z,28.1
2018-03-22T10:15:48.560Z,28.1
2018-03-22T10:16:38.869Z,28.2
2018-03-22T10:17:28.289Z,28.2
2018-03-22T10:18:19.278Z,28.2
2018-03-22T10:19:09.068Z,28.2
2018-03-22T10:19:58.828Z,28.1
2018-03-22T10:20:49.385Z,28.1
2018-03-22T10:21:38.951Z,28.1
2018-03-22T10:22:29.282Z,28.1
2018-03-22T10:23:19.052Z,28.1
2018-03-22T10:24:08.533Z,28.1
2018-03-22T10:24:59.409Z,28
2018-03-22T10:25:48.724Z,27.9
2018-03-22T10:26:39.471Z,27.9
2018-03-22T10:27:29.619Z,27.9
2018-03-22T10:28:19.350Z,27.9
2018-03-22T10:29:09.389Z,27.9
2018-03-22T10:30:49.614Z,27.7
2018-03-22T10:31:39.628Z,27.6
2018-03-22T10:32:30.144Z,27.6
2018-03-22T10:33:20.276Z,27.4
2018-03-22T10:34:09.479Z,27.4
2018-03-22T10:34:59.571Z,27.3
2018-03-22T10:35:49.166Z,27.2
2018-03-22T10:36:37.737Z,27.1
2018-03-22T10:37:29.241Z,27.1
2018-03-22T10:38:20.498Z,27.1
2018-03-22T10:39:09.027Z,27.2
2018-03-22T10:39:58.581Z,27.2
2018-03-22T10:40:49.166Z,27.3
2018-03-22T10:41:39.947Z,27.3
2018-03-22T10:42:29.990Z,27.3
2018-03-22T10:43:20.594Z,27.3
2018-03-22T10:44:09.106Z,27.4
2018-03-22T10:45:00.875Z,27.4
2018-03-22T10:45:49.556Z,27.5
2018-03-22T10:46:39.806Z,27.5
2018-03-22T10:47:29.648Z,27.6
2018-03-22T10:48:20.776Z,27.6
2018-03-22T10:49:10.426Z,27.7
2018-03-22T10:49:59.534Z,27.7
2018-03-22T10:51:40.237Z,27.9
2018-03-22T10:52:31.185Z,27.9
2018-03-22T10:53:20.865Z,27.9
2018-03-22T10:54:10.717Z,28
2018-03-22T10:55:00.360Z,28
2018-03-22T10:55:51.126Z,28.1
2018-03-22T10:56:40.195Z,28.1
2018-03-22T10:57:30.078Z,28.2
2018-03-22T10:58:20.350Z,28.2
2018-03-22T10:59:11.158Z,28.3
2018-03-22T10:59:59.942Z,28.3
2018-03-22T11:00:50.770Z,28.3
2018-03-22T11:01:40.072Z,28.3
2018-03-22T11:02:30.172Z,28.4
2018-03-22T11:03:21.602Z,28.3
2018-03-22T11:04:11.820Z,28.3
2018-03-22T11:05:00.662Z,28.3
2018-03-22T11:05:51.357Z,28.2
2018-03-22T11:06:41.703Z,28.2
2018-03-22T11:07:31.277Z,28.2
2018-03-22T11:08:22.042Z,28.1
2018-03-22T11:09:11.159Z,28.1
2018-03-22T11:10:01.210Z,28.1
2018-03-22T11:10:52.286Z,28
2018-03-22T11:11:41.233Z,28
2018-03-22T11:12:32.012Z,27.9
2018-03-22T11:13:21.834Z,27.9
2018-03-22T11:14:11.981Z,27.9
2018-03-22T11:15:52.544Z,27.8
2018-03-22T11:16:41.906Z,27.6
2018-03-22T11:17:31.719Z,27.6
2018-03-22T11:18:22.007Z,27.5
2018-03-22T11:19:12.023Z,27.4
2018-03-22T11:20:02.620Z,27.3
2018-03-22T11:20:52.841Z,27.2
2018-03-22T11:21:41.926Z,27.2
2018-03-22T11:22:32.666Z,27.2
2018-03-22T11:23:22.718Z,27.2
2018-03-22T11:24:12.487Z,27.3
2018-03-22T11:25:02.249Z,27.3
2018-03-22T11:25:52.003Z,27.3
2018-03-22T11:26:41.946Z,27.3
2018-03-22T11:27:31.938Z,27.3
2018-03-22T11:28:21.779Z,27.4
2018-03-22T11:29:13.621Z,27.4
2018-03-22T11:30:03.343Z,27.4
2018-03-22T11:30:54.138Z,27.5
2018-03-22T11:31:44.255Z,27.6
2018-03-22T11:32:34.253Z,27.6
2018-03-22T11:33:24.320Z,27.6
2018-03-22T11:34:13.855Z,27.7
2018-03-22T11:35:03.997Z,27.8
2018-03-22T11:37:34.416Z,27.9
2018-03-22T11:38:23.950Z,27.9
2018-03-22T11:39:13.728Z,28
2018-03-22T11:40:04.560Z,28
2018-03-22T11:40:54.802Z,28.1
2018-03-22T11:41:44.349Z,28.1
2018-03-22T11:42:35.280Z,28.1
2018-03-22T11:43:25.042Z,28.1
2018-03-22T11:44:15.320Z,28.1
2018-03-22T11:45:05.383Z,28.1
2018-03-22T11:45:55.192Z,28.1
2018-03-22T11:46:44.937Z,28
2018-03-22T11:47:35.271Z,27.9
2018-03-22T11:48:25.120Z,27.9
2018-03-22T11:50:05.510Z,27.7